Wind From: 11-12-2017 12:03 Until: 12-12-2017 06:00 warning for: Wind Level: Orange info button

Power and phone distribution networks may be disrupted for relatively long periods., Roofs and chimneys can be damaged. , Tree branches may break. , Vehicles can be deported. , Traffic may be disrupted, particularly on secondary roads in forest areas. Limit your trips. , Limit your speed in highway driving, especially if you drive a vehicle or hitch sensitive to wind. , Do not go for walks in forests or along the coast., In town, be vigilant against possible falling objects., Do not work on roofs and do not touch any electrical line fallen on the ground., Store or secure sensitive objects to wind or likely to be damaged., Always install power generators outside buildings. 


Meteo18 Weather Cam more information Meteo18 Weather Cam


Thunder radar more information blitzortung!


Rain radar more information rain snow radar


Visit our other weather sites:

Template documentation
and downloads

And another site



Weather Underground History page Text

Daily Summary for September 25, 2017 Units:  English    Metric   Both
« Previous Day
Next Day »
Daily Weekly Monthly Yearly Custom
  High: Low: Average:
Temperature: 61.2 °F 54.5 °F 58.6 °F
Dew Point: 59.4 °F 51.4 °F 55.6 °F
Humidity: 97 % 79 % 90 %
Wind Speed: 10 mph 0 mph 1.5 mph
Wind Gust: 16 mph - -
Wind:- - WSW
Pressure: 30.2 in 30.1 in -
Precipitation: 0.48 in    
Historical Graphs
 
 
Tabular Data for September 25, 2017
Time Temperature Dew Point Pressure Wind Wind Speed Wind Gust Humidity Rainfall Rate (Hourly)
00:02 61 °F 54.5 °F 30.1 in Calm   1 mph 79 % 0 in
00:12 60.3 °F 54.7 °F 30.1 in Calm   1 mph 82 % 0 in
00:17 60.3 °F 54.3 °F 30.1 in Calm   1 mph 81 % 0 in
00:22 60.4 °F 54.3 °F 30.1 in WNW 1 mph 1 mph 80 % 0 in
00:32 60.1 °F 54 °F 30.1 in Calm   2 mph 80 % 0 in
00:37 60.3 °F 54.1 °F 30.1 in North 1 mph 2 mph 80 % 0 in
00:42 60.4 °F 54 °F 30.1 in NNW 1 mph 2 mph 79 % 0 in
00:52 60.1 °F 53.6 °F 30.1 in Calm   1 mph 79 % 0 in
00:57 59.7 °F 54.1 °F 30.1 in Calm   1 mph 82 % 0 in
01:02 59.2 °F 54 °F 30.1 in WNW 1 mph 1 mph 83 % 0 in
01:12 58.8 °F 54 °F 30.1 in Calm   1 mph 84 % 0 in
01:17 58.6 °F 53.8 °F 30.1 in WNW 1 mph 1 mph 84 % 0 in
01:22 58.8 °F 53.6 °F 30.1 in Calm   1 mph 83 % 0 in
01:27 59 °F 53.6 °F 30.1 in Calm   1 mph 82 % 0 in
01:32 58.8 °F 53.4 °F 30.1 in Calm   1 mph 82 % 0 in
01:42 57.9 °F 53.4 °F 30.1 in NW 1 mph 1 mph 85 % 0 in
01:47 57.7 °F 53.2 °F 30.1 in Calm   2 mph 85 % 0 in
01:52 58.1 °F 53.2 °F 30.1 in Calm   2 mph 84 % 0 in
01:57 58.6 °F 53.2 °F 30.1 in Calm   1 mph 82 % 0 in
02:02 58.6 °F 52.9 °F 30.1 in Calm   1 mph 81 % 0 in
02:07 58.6 °F 52.9 °F 30.1 in Calm   1 mph 81 % 0 in
02:17 57.7 °F 52.9 °F 30.1 in Calm   1 mph 84 % 0 in
02:22 57.6 °F 52.7 °F 30.1 in Calm   1 mph 84 % 0 in
02:32 57.7 °F 52.7 °F 30.1 in Calm   1 mph 83 % 0 in
02:42 57.4 °F 52.5 °F 30.1 in Calm   1 mph 84 % 0 in
02:47 57 °F 52.5 °F 30.1 in Calm   1 mph 85 % 0 in
02:52 57 °F 52.9 °F 30.1 in Calm   1 mph 86 % 0 in
02:57 56.8 °F 52.3 °F 30.1 in Calm   1 mph 85 % 0 in
03:02 57 °F 52.5 °F 30.1 in Calm   1 mph 85 % 0 in
03:12 57.4 °F 52.5 °F 30.1 in Calm   1 mph 84 % 0 in
03:17 56.8 °F 52.3 °F 30.1 in Calm     85 % 0 in
03:22 56.5 °F 52.3 °F 30.1 in Calm     86 % 0 in
03:32 56.1 °F 52.7 °F 30.1 in Calm     88 % 0 in
03:37 55.9 °F 52.2 °F 30.1 in Calm     87 % 0 in
03:42 55.9 °F 52.5 °F 30.1 in Calm     88 % 0 in
03:52 56.5 °F 52.7 °F 30.1 in North 2 mph   87 % 0 in
03:57 57 °F 52.2 °F 30.1 in North 1 mph 2 mph 84 % 0 in
04:02 56.8 °F 52.3 °F 30.1 in Calm   2 mph 85 % 0 in
04:12 56.7 °F 52.2 °F 30.1 in NNW 1 mph 2 mph 85 % 0 in
04:17 57.2 °F 52.3 °F 30.1 in Calm   2 mph 84 % 0 in
04:27 57.2 °F 52.2 °F 30.1 in Calm   2 mph 83 % 0 in
04:32 57.4 °F 52.5 °F 30.1 in Calm   2 mph 84 % 0 in
04:42 58.3 °F 52.5 °F 30.1 in Calm   1 mph 81 % 0 in
04:47 57.6 °F 52.5 °F 30.1 in Calm   1 mph 83 % 0 in
04:52 57 °F 52.2 °F 30.1 in Calm   1 mph 84 % 0 in
05:02 56.8 °F 52 °F 30.1 in Calm   1 mph 84 % 0 in
05:12 56.8 °F 52.3 °F 30.1 in Calm   1 mph 85 % 0 in
05:22 56.3 °F 52.5 °F 30.1 in Calm   1 mph 87 % 0 in
05:32 56.7 °F 52.5 °F 30.1 in Calm     86 % 0 in
05:42 56.5 °F 52 °F 30.1 in Calm     85 % 0 in
05:52 56.1 °F 52.3 °F 30.1 in Calm     87 % 0 in
05:57 56.1 °F 52.3 °F 30.1 in Calm     87 % 0 in
06:07 55.9 °F 51.8 °F 30.1 in Calm     86 % 0 in
06:12 55.8 °F 52 °F 30.1 in Calm     87 % 0 in
06:17 56.1 °F 52.3 °F 30.1 in Calm     87 % 0 in
06:22 56.5 °F 52.3 °F 30.1 in Calm     86 % 0 in
06:32 56.5 °F 52.3 °F 30.1 in Calm     86 % 0 in
06:42 56.1 °F 51.6 °F 30.1 in Calm     85 % 0 in
06:47 55.8 °F 51.6 °F 30.1 in Calm     86 % 0 in
06:52 55.9 °F 52.2 °F 30.1 in Calm     87 % 0 in
06:57 55.6 °F 52.2 °F 30.1 in Calm     88 % 0 in
07:02 55.2 °F 51.8 °F 30.1 in Calm     88 % 0 in
07:07 55.6 °F 51.8 °F 30.1 in Calm     87 % 0 in
07:17 54.9 °F 51.6 °F 30.1 in Calm     89 % 0 in
07:22 54.7 °F 51.4 °F 30.1 in Calm     89 % 0 in
07:27 54.7 °F 51.8 °F 30.1 in Calm     90 % 0 in
07:32 54.7 °F 51.4 °F 30.1 in Calm     89 % 0 in
07:37 54.5 °F 51.6 °F 30.1 in Calm     90 % 0 in
07:47 55.4 °F 52.2 °F 30.1 in NNE 1 mph   89 % 0 in
07:52 55.8 °F 52 °F 30.1 in Calm   2 mph 87 % 0 in
07:57 55.2 °F 51.4 °F 30.1 in NW 1 mph 2 mph 87 % 0 in
08:02 55.2 °F 52 °F 30.1 in Calm   2 mph 89 % 0 in
08:12 55.8 °F 52 °F 30.1 in Calm   2 mph 87 % 0 in
08:17 55.9 °F 52.2 °F 30.1 in Calm   2 mph 87 % 0 in
08:22 55.9 °F 52.2 °F 30.1 in Calm   1 mph 87 % 0 in
08:32 56.5 °F 52 °F 30.1 in Calm   1 mph 85 % 0 in
08:42 56.8 °F 52 °F 30.1 in Calm   1 mph 84 % 0 in
08:47 57 °F 52 °F 30.1 in Calm   1 mph 83 % 0 in
08:52 57.4 °F 52.3 °F 30.1 in Calm   1 mph 83 % 0 in
08:57 57.6 °F 52.5 °F 30.1 in Calm   1 mph 83 % 0 in
09:02 57.7 °F 52.7 °F 30.1 in Calm     83 % 0 in
09:12 57.9 °F 52.7 °F 30.1 in Calm     83 % 0 in
09:17 58.1 °F 52.9 °F 30.1 in Calm     83 % 0 in
09:22 58.3 °F 52.9 °F 30.1 in Calm   1 mph 82 % 0 in
09:27 58.5 °F 52.7 °F 30.1 in East 1 mph 1 mph 81 % 0 in
09:32 58.6 °F 52.9 °F 30.1 in Calm   4 mph 81 % 0 in
09:37 58.6 °F 52.9 °F 30.1 in Calm   4 mph 81 % 0 in
09:42 58.8 °F 53.1 °F 30.1 in SSW 2 mph 4 mph 81 % 0 in
09:47 58.6 °F 52.5 °F 30.1 in SSW 3 mph 4 mph 80 % 0 in
09:52 58.6 °F 52.9 °F 30.1 in SSE 1 mph 4 mph 81 % 0 in
09:57 58.6 °F 52.9 °F 30.1 in SW 2 mph 4 mph 81 % 0 in
10:02 58.6 °F 52.9 °F 30.1 in Calm   4 mph 81 % 0 in
10:17 58.5 °F 53.2 °F 30.1 in SSW 3 mph 5 mph 83 % 0 in
10:22 58.3 °F 53.4 °F 30.1 in SW 3 mph 4 mph 84 % 0 in
10:32 58.1 °F 53.6 °F 30.1 in SSW 2 mph 5 mph 85 % 0 in
10:37 58.1 °F 53.6 °F 30.1 in Calm   5 mph 85 % 0 in
10:42 58.1 °F 53.6 °F 30.1 in West 1 mph 4 mph 85 % 0 in
10:47 58.1 °F 54 °F 30.1 in SW 6 mph 6 mph 86 % 0 in
10:52 57.9 °F 53.8 °F 30.1 in West 4 mph 7 mph 86 % 0 in
10:57 57.7 °F 54.5 °F 30.1 in West 6 mph 7 mph 89 % 0 in
11:02 57.6 °F 55 °F 30.1 in WNW 6 mph 10 mph 91 % 0.05 in
11:07 57.6 °F 55.6 °F 30.1 in SW 9 mph 10 mph 93 % 0.05 in
11:12 57.7 °F 55.9 °F 30.1 in West 9 mph 14 mph 94 % 0.18 in
11:17 57.9 °F 56.1 °F 30.1 in West 5 mph 14 mph 94 % 0.18 in
11:22 57.9 °F 56.1 °F 30.1 in SW 5 mph 16 mph 94 % 0.28 in
11:32 58.3 °F 56.5 °F 30.1 in WSW 8 mph 15 mph 94 % 0.28 in
11:37 58.3 °F 56.5 °F 30.1 in WSW 10 mph 15 mph 94 % 0.28 in
11:42 58.3 °F 56.5 °F 30.1 in WSW 7 mph 14 mph 94 % 0.3 in
11:47 58.3 °F 56.5 °F 30.1 in West 6 mph 14 mph 94 % 0.3 in
11:52 58.3 °F 56.5 °F 30.1 in WSW 7 mph 14 mph 94 % 0.32 in
11:57 58.3 °F 56.3 °F 30.1 in West 8 mph 14 mph 93 % 0.32 in
12:02 58.5 °F 56.5 °F 30.1 in West 7 mph 13 mph 93 % 0.29 in
12:07 58.5 °F 56.5 °F 30.1 in WSW 5 mph 13 mph 93 % 0.29 in
12:12 58.5 °F 56.5 °F 30.1 in SW 3 mph 15 mph 93 % 0.17 in
12:17 58.5 °F 56.5 °F 30.1 in West 2 mph 15 mph 93 % 0.17 in
12:22 58.5 °F 56.5 °F 30.1 in WSW 2 mph 15 mph 93 % 0.13 in
12:32 58.6 °F 56.8 °F 30.1 in SW 4 mph 8 mph 94 % 0.12 in
12:42 58.6 °F 56.8 °F 30.1 in WSW 7 mph 9 mph 94 % 0.11 in
12:52 58.6 °F 56.8 °F 30.1 in WNW 5 mph 9 mph 94 % 0.09 in
13:02 58.8 °F 57 °F 30.1 in West 6 mph 9 mph 94 % 0.07 in
13:12 59.2 °F 57.4 °F 30.1 in WSW 5 mph 9 mph 94 % 0.07 in
13:22 59.4 °F 57.4 °F 30.1 in SW 3 mph 10 mph 93 % 0.04 in
13:32 59.5 °F 57.6 °F 30.1 in West 3 mph 9 mph 93 % 0.03 in
13:42 59.5 °F 57.6 °F 30.1 in SSW 1 mph 10 mph 93 % 0.02 in
13:47 59.7 °F 57.9 °F 30.1 in SSE 2 mph 9 mph 94 % 0.02 in
13:57 59.4 °F 57.6 °F 30.1 in SW 6 mph 6 mph 94 % 0.02 in
14:02 59.4 °F 57.6 °F 30.1 in SW 5 mph 5 mph 94 % 0.02 in
14:12 59.4 °F 57.6 °F 30.1 in WSW 4 mph 6 mph 94 % 0.02 in
14:17 59.5 °F 57.7 °F 30.1 in WSW 6 mph 6 mph 94 % 0.04 in
14:22 59.5 °F 57.7 °F 30.1 in SW 3 mph 5 mph 94 % 0.04 in
14:27 59.5 °F 57.7 °F 30.1 in SW 3 mph 6 mph 94 % 0.04 in
14:32 59.5 °F 58.1 °F 30.1 in SW 1 mph 6 mph 95 % 0.04 in
14:42 60.1 °F 58.6 °F 30.1 in SSW 1 mph 5 mph 95 % 0.04 in
14:47 60.1 °F 58.3 °F 30.1 in SW 2 mph 5 mph 94 % 0.03 in
14:52 60.1 °F 58.6 °F 30.1 in SW 2 mph 5 mph 95 % 0.03 in
14:57 60.3 °F 58.8 °F 30.1 in SSW 4 mph 5 mph 95 % 0.02 in
15:02 60.3 °F 58.8 °F 30.1 in WSW 4 mph 5 mph 95 % 0.02 in
15:07 60.4 °F 59 °F 30.1 in SW 2 mph 5 mph 95 % 0.01 in
15:12 60.4 °F 58.6 °F 30.1 in SSW 3 mph 5 mph 94 % 0.01 in
15:17 60.4 °F 59 °F 30.1 in Calm   6 mph 95 % 0 in
15:27 60.6 °F 59.2 °F 30.1 in SW 2 mph 5 mph 95 % 0 in
15:32 60.6 °F 58.8 °F 30.1 in SW 3 mph 5 mph 94 % 0 in
15:37 60.8 °F 59 °F 30.1 in South 1 mph 4 mph 94 % 0 in
15:42 61 °F 59.2 °F 30.1 in SSW 1 mph 4 mph 94 % 0 in
15:47 61 °F 59.2 °F 30.1 in SW 1 mph 4 mph 94 % 0 in
15:57 61 °F 59.2 °F 30.1 in West 2 mph 4 mph 94 % 0 in
16:02 61.2 °F 59.4 °F 30.1 in WSW 1 mph 4 mph 94 % 0 in
16:12 61.2 °F 59.2 °F 30.1 in WSW 2 mph 5 mph 93 % 0 in
16:17 61.2 °F 59.2 °F 30.1 in West 3 mph 5 mph 93 % 0 in
16:22 61.2 °F 59.2 °F 30.1 in West 1 mph 5 mph 93 % 0 in
16:27 61 °F 58.6 °F 30.1 in WNW 4 mph 5 mph 92 % 0 in
16:37 61.2 °F 58.8 °F 30.1 in West 1 mph 6 mph 92 % 0 in
16:42 61.2 °F 58.8 °F 30.1 in WSW 2 mph 6 mph 92 % 0 in
16:47 61.2 °F 59.2 °F 30.1 in SW 2 mph 6 mph 93 % 0 in
16:52 61.2 °F 58.8 °F 30.1 in WSW 3 mph 6 mph 92 % 0 in
17:02 61.2 °F 58.8 °F 30.1 in WSW 2 mph 5 mph 92 % 0 in
17:07 61.2 °F 59.2 °F 30.1 in West 1 mph 5 mph 93 % 0 in
17:17 61.2 °F 58.8 °F 30.1 in SW 1 mph 5 mph 92 % 0 in
17:22 61 °F 58.6 °F 30.1 in West 4 mph 5 mph 92 % 0 in
17:27 61 °F 58.6 °F 30.1 in SW 2 mph 5 mph 92 % 0 in
17:32 61 °F 58.6 °F 30.1 in SW 2 mph 5 mph 92 % 0 in
17:37 61 °F 58.6 °F 30.1 in South 2 mph 6 mph 92 % 0 in
17:42 61 °F 59 °F 30.1 in SW 5 mph 6 mph 93 % 0 in
17:47 61 °F 59 °F 30.1 in SW 2 mph 6 mph 93 % 0 in
17:52 61 °F 59 °F 30.1 in SW 3 mph 6 mph 93 % 0 in
17:57 60.8 °F 58.8 °F 30.1 in WSW 1 mph 6 mph 93 % 0 in
18:02 60.6 °F 58.6 °F 30.1 in Calm   6 mph 93 % 0 in
18:12 60.6 °F 58.6 °F 30.1 in SW 2 mph 6 mph 93 % 0 in
18:17 60.6 °F 58.6 °F 30.1 in Calm   6 mph 93 % 0 in
18:22 60.6 °F 58.6 °F 30.1 in WNW 2 mph 4 mph 93 % 0 in
18:32 60.4 °F 58.5 °F 30.1 in West 2 mph 3 mph 93 % 0 in
18:37 60.4 °F 58.5 °F 30.1 in West 3 mph 3 mph 93 % 0 in
18:42 60.4 °F 58.6 °F 30.1 in West 2 mph 4 mph 94 % 0 in
18:47 60.4 °F 58.6 °F 30.1 in SW 2 mph 4 mph 94 % 0 in
18:52 60.4 °F 58.6 °F 30.1 in WNW 2 mph 5 mph 94 % 0 in
18:57 60.4 °F 58.6 °F 30.1 in SW 3 mph 6 mph 94 % 0 in
19:02 60.4 °F 58.6 °F 30.1 in WSW 2 mph 6 mph 94 % 0 in
19:12 60.3 °F 58.5 °F 30.1 in West 1 mph 6 mph 94 % 0 in
19:17 60.3 °F 58.5 °F 30.1 in WSW 1 mph 3 mph 94 % 0 in
19:22 60.3 °F 58.5 °F 30.1 in Calm   3 mph 94 % 0 in
19:32 60.1 °F 58.3 °F 30.1 in SW 2 mph 3 mph 94 % 0 in
19:37 60.1 °F 58.3 °F 30.1 in SW 2 mph 4 mph 94 % 0 in
19:42 60.1 °F 58.3 °F 30.1 in SW 3 mph 4 mph 94 % 0 in
19:47 60.1 °F 58.6 °F 30.1 in WSW 2 mph 5 mph 95 % 0 in
19:57 59.9 °F 58.5 °F 30.1 in WSW 4 mph 5 mph 95 % 0 in
20:02 59.9 °F 58.5 °F 30.1 in West 3 mph 5 mph 95 % 0 in
20:12 59.7 °F 58.3 °F 30.1 in West 1 mph 5 mph 95 % 0 in
20:17 59.7 °F 58.3 °F 30.1 in WSW 1 mph 5 mph 95 % 0 in
20:22 59.7 °F 58.3 °F 30.1 in SW 2 mph 5 mph 95 % 0 in
20:32 59.7 °F 58.3 °F 30.1 in WSW 1 mph 5 mph 95 % 0 in
20:37 59.7 °F 58.3 °F 30.1 in WSW 1 mph 5 mph 95 % 0 in
20:42 59.7 °F 58.6 °F 30.1 in West 1 mph 5 mph 96 % 0 in
20:52 59.7 °F 58.6 °F 30.2 in WSW 1 mph 3 mph 96 % 0 in
20:57 59.7 °F 58.6 °F 30.2 in Calm   3 mph 96 % 0 in
21:02 59.7 °F 58.6 °F 30.2 in Calm   3 mph 96 % 0 in
21:12 59.7 °F 58.6 °F 30.2 in Calm   3 mph 96 % 0 in
21:17 59.5 °F 58.5 °F 30.2 in Calm     96 % 0 in
21:27 59.5 °F 58.5 °F 30.2 in Calm   1 mph 96 % 0 in
21:32 59.5 °F 58.5 °F 30.2 in Calm   1 mph 96 % 0 in
21:37 59.4 °F 58.3 °F 30.2 in SW 1 mph   96 % 0 in
21:42 59.5 °F 58.5 °F 30.2 in Calm     96 % 0 in
21:47 59.5 °F 58.5 °F 30.2 in Calm   2 mph 96 % 0 in
21:57 59.4 °F 58.3 °F 30.2 in Calm   2 mph 96 % 0 in
22:02 59.4 °F 58.3 °F 30.2 in SSW 1 mph 2 mph 96 % 0 in
22:12 59.4 °F 58.3 °F 30.2 in SW 3 mph 3 mph 96 % 0 in
22:17 59.2 °F 58.1 °F 30.2 in SSW 1 mph 4 mph 96 % 0 in
22:22 59.2 °F 58.1 °F 30.2 in SSW 1 mph 4 mph 96 % 0 in
22:27 59 °F 57.9 °F 30.2 in SSW 1 mph 4 mph 96 % 0 in
22:32 58.8 °F 57.7 °F 30.2 in Calm   4 mph 96 % 0 in
22:42 58.3 °F 57.2 °F 30.2 in Calm   2 mph 96 % 0 in
22:47 58.3 °F 57.2 °F 30.2 in Calm     96 % 0 in
22:52 58.1 °F 57 °F 30.2 in Calm     96 % 0 in
22:57 58.1 °F 57 °F 30.2 in Calm     96 % 0 in
23:12 57.9 °F 56.8 °F 30.2 in Calm     96 % 0 in
23:17 57.9 °F 56.8 °F 30.2 in Calm     96 % 0 in
23:22 57.9 °F 57 °F 30.2 in Calm     97 % 0 in
23:32 57.7 °F 56.7 °F 30.2 in Calm     96 % 0 in
23:37 57.7 °F 56.8 °F 30.2 in Calm     97 % 0 in
23:42 57.7 °F 56.8 °F 30.2 in Calm     97 % 0 in
23:47 57.7 °F 56.8 °F 30.2 in Calm     97 % 0 in
23:52 57.7 °F 56.8 °F 30.2 in Calm     97 % 0 in
23:57 57.6 °F 56.5 °F 30.2 in Calm     96 % 0 in
Meteo18
Compliments of Weather Underground - 4 mb

Script developed by  Jim McMurry - jmcmurry@mwt.net Adapted for the template by  Wim van der Kuil - Leuven-Template.eu

You find our weather info also at:

European Weather Network

Weather Underground

Equipment we use:

Weather-station
Davis Vue

Weather-program
Meteohub

Weather-server
Raspberry PI 2 B+

Provider
1 and 1

Davis Vue

Meteohub

Raspberry PI 2 B+

1 and 1